Time;durP1;ratioP1;P1;durP2;ratioP2;P2;SDS_P1;SDS_P2;PMS_P1;PMS_P2;Temp;Humidity;BMP_temperature;BMP_pressure;BME280_temperature;BME280_humidity;BME280_pressure;Samples;Min_cycle;Max_cycle;Signal;HPM_P1;HPM_P2
2023/07/03 06:18:50;;;;;;;17.13;9.90;;;;;;;;;;5942614;23;20457;-70
2023/07/03 06:21:17;;;;;;;17.27;9.38;;;;;;;;;;5028592;28;20038;-72
2023/07/03 06:23:43;;;;;;;19.05;9.10;;;;;;;;;;5029371;28;20393;-72
2023/07/03 06:26:10;;;;;;;15.80;9.10;;;;;;;;;;5031777;28;20029;-72
2023/07/03 06:28:37;;;;;;;17.52;8.82;;;;;;;;;;5028533;28;20098;-72
2023/07/03 06:31:03;;;;;;;14.63;8.88;;;;;;;;;;5029748;28;20025;-72
2023/07/03 06:33:30;;;;;;;14.05;8.48;;;;;;;;;;5026569;28;20385;-72
2023/07/03 06:35:56;;;;;;;16.73;8.90;;;;;;;;;;5025530;28;20025;-72
2023/07/03 06:38:22;;;;;;;17.58;9.25;;;;;;;;;;5021093;28;20030;-72
2023/07/03 06:40:56;;;;;;;15.52;9.32;;;;;;;;;;5031135;28;20500;-72
2023/07/03 06:43:22;;;;;;;15.88;8.85;;;;;;;;;;5032802;28;20127;-72
2023/07/03 06:45:49;;;;;;;14.35;8.43;;;;;;;;;;5020046;28;20018;-72
2023/07/03 06:48:15;;;;;;;15.13;8.93;;;;;;;;;;5011713;28;20030;-72
2023/07/03 06:50:42;;;;;;;17.08;9.57;;;;;;;;;;5014771;28;20038;-72
2023/07/03 06:53:08;;;;;;;18.10;8.73;;;;;;;;;;5028507;28;20132;-71
2023/07/03 06:55:34;;;;;;;14.40;8.40;;;;;;;;;;5026571;28;20026;-72
2023/07/03 06:58:02;;;;;;;18.13;8.45;;;;;;;;;;5030805;28;20489;-72
2023/07/03 07:00:29;;;;;;;14.73;8.02;;;;;;;;;;5030625;28;20033;-72
2023/07/03 07:02:55;;;;;;;16.63;8.88;;;;;;;;;;5021802;28;20359;-71
2023/07/03 07:05:21;;;;;;;18.33;10.63;;;;;;;;;;5030965;28;20030;-72
2023/07/03 07:07:48;;;;;;;20.48;9.23;;;;;;;;;;5030197;28;20501;-72
2023/07/03 07:10:14;;;;;;;14.65;8.63;;;;;;;;;;5029918;28;20021;-72
2023/07/03 07:12:40;;;;;;;17.60;8.32;;;;;;;;;;5031602;28;20029;-72
2023/07/03 07:15:07;;;;;;;15.90;8.65;;;;;;;;;;5030745;28;20376;-72
2023/07/03 07:17:33;;;;;;;13.02;7.38;;;;;;;;;;5031454;28;20022;-71
2023/07/03 07:20:00;;;;;;;13.88;7.05;;;;;;;;;;5020061;28;20421;-72
2023/07/03 07:22:26;;;;;;;10.73;6.28;;;;;;;;;;5013206;28;20059;-73
2023/07/03 07:24:52;;;;;;;11.10;6.13;;;;;;;;;;5012390;28;20075;-72
2023/07/03 07:27:19;;;;;;;11.23;6.57;;;;;;;;;;5007830;28;20034;-72
2023/07/03 07:29:45;;;;;;;15.65;5.53;;;;;;;;;;5010243;28;20422;-72
2023/07/03 07:32:11;;;;;;;9.90;6.30;;;;;;;;;;5012430;28;20032;-72
2023/07/03 07:34:38;;;;;;;15.68;6.70;;;;;;;;;;5012306;28;20034;-72
2023/07/03 07:37:04;;;;;;;11.93;6.45;;;;;;;;;;5023173;28;20030;-72
2023/07/03 07:39:31;;;;;;;12.80;6.05;;;;;;;;;;5030453;28;20520;-72
2023/07/03 07:41:57;;;;;;;11.57;5.82;;;;;;;;;;5030692;28;20026;-72
2023/07/03 07:44:23;;;;;;;12.30;6.30;;;;;;;;;;5032280;28;20047;-71
2023/07/03 07:46:50;;;;;;;14.48;5.78;;;;;;;;;;5032495;28;20030;-72
2023/07/03 07:49:16;;;;;;;10.55;5.65;;;;;;;;;;5029949;28;20051;-72
2023/07/03 07:51:42;;;;;;;12.32;5.85;;;;;;;;;;5032387;28;20024;-72
2023/07/03 07:54:09;;;;;;;14.13;6.07;;;;;;;;;;5027645;28;20027;-72
2023/07/03 07:56:35;;;;;;;11.15;5.93;;;;;;;;;;5026734;28;20029;-72
2023/07/03 07:59:01;;;;;;;12.85;5.72;;;;;;;;;;5013947;28;20520;-72
2023/07/03 08:01:28;;;;;;;12.32;5.72;;;;;;;;;;5015128;28;20024;-72
2023/07/03 08:03:54;;;;;;;8.93;5.28;;;;;;;;;;5029834;28;20031;-72
2023/07/03 08:06:20;;;;;;;12.32;5.90;;;;;;;;;;5032594;28;20034;-72
2023/07/03 08:08:46;;;;;;;10.00;6.18;;;;;;;;;;5032863;28;20424;-72
2023/07/03 08:11:14;;;;;;;8.48;5.90;;;;;;;;;;5032611;28;20025;-72
2023/07/03 08:13:40;;;;;;;10.05;5.47;;;;;;;;;;5031080;28;20033;-72
2023/07/03 08:16:08;;;;;;;13.00;5.20;;;;;;;;;;5027294;28;20033;-72
2023/07/03 08:18:34;;;;;;;9.57;5.47;;;;;;;;;;5016758;28;20030;-72
2023/07/03 08:21:01;;;;;;;7.78;4.78;;;;;;;;;;5034332;28;20055;-71
2023/07/03 08:23:29;;;;;;;7.18;4.85;;;;;;;;;;5033746;28;20546;-73
2023/07/03 08:25:56;;;;;;;7.03;4.63;;;;;;;;;;5028055;28;20034;-72
2023/07/03 08:28:22;;;;;;;6.97;4.47;;;;;;;;;;5018289;28;20033;-72
2023/07/03 08:30:49;;;;;;;6.97;4.45;;;;;;;;;;5027109;28;20374;-72
2023/07/03 08:33:15;;;;;;;8.50;4.15;;;;;;;;;;5032523;28;20443;-73
2023/07/03 08:35:42;;;;;;;7.38;4.03;;;;;;;;;;5024856;28;20508;-72
2023/07/03 08:38:09;;;;;;;6.97;4.07;;;;;;;;;;5026302;28;20025;-72
2023/07/03 08:40:35;;;;;;;6.43;4.35;;;;;;;;;;5033688;28;20036;-72
2023/07/03 08:43:02;;;;;;;12.20;4.40;;;;;;;;;;5034131;28;20033;-70
2023/07/03 08:45:39;;;;;;;7.13;4.30;;;;;;;;;;5033645;28;20040;-71
2023/07/03 08:48:08;;;;;;;5.93;4.70;;;;;;;;;;5033038;28;20042;-71
2023/07/03 08:50:34;;;;;;;9.02;4.53;;;;;;;;;;5033807;28;20053;-72
2023/07/03 08:53:03;;;;;;;7.30;3.90;;;;;;;;;;5033812;28;20029;-71
2023/07/03 08:55:44;;;;;;;6.30;4.63;;;;;;;;;;5022975;28;20027;-71
2023/07/03 08:58:11;;;;;;;6.95;3.60;;;;;;;;;;5037274;28;20042;-72
2023/07/03 09:00:57;;;;;;;6.00;3.72;;;;;;;;;;5033582;28;20096;-71
2023/07/03 09:03:32;;;;;;;6.28;3.90;;;;;;;;;;5033807;28;20037;-71
2023/07/03 09:06:08;;;;;;;7.13;4.05;;;;;;;;;;5014103;28;20030;-71
2023/07/03 09:08:38;;;;;;;6.10;4.15;;;;;;;;;;5013493;28;20097;-72
2023/07/03 09:11:05;;;;;;;8.20;4.25;;;;;;;;;;5013919;28;20030;-71
2023/07/03 09:13:33;;;;;;;8.18;3.92;;;;;;;;;;5022500;28;20038;-70
2023/07/03 09:16:04;;;;;;;6.95;4.15;;;;;;;;;;5031121;28;20032;-71
2023/07/03 09:18:42;;;;;;;7.55;4.35;;;;;;;;;;5027196;28;20025;-71
2023/07/03 09:21:09;;;;;;;7.15;4.90;;;;;;;;;;5025414;28;20485;-72
2023/07/03 09:23:58;;;;;;;5.57;4.00;;;;;;;;;;5027359;28;20038;-70
2023/07/03 09:26:29;;;;;;;8.48;4.25;;;;;;;;;;5028524;28;20017;-71
2023/07/03 09:28:58;;;;;;;8.32;3.90;;;;;;;;;;5022433;28;20033;-71
2023/07/03 09:31:26;;;;;;;5.57;4.20;;;;;;;;;;5028701;28;20037;-72
2023/07/03 09:33:53;;;;;;;6.00;4.25;;;;;;;;;;5028356;28;20057;-72
2023/07/03 09:36:35;;;;;;;6.00;3.80;;;;;;;;;;5026329;28;20044;-72
2023/07/03 09:39:12;;;;;;;5.30;3.90;;;;;;;;;;5027062;28;20037;-72
2023/07/03 09:41:39;;;;;;;5.03;3.92;;;;;;;;;;5028259;28;20027;-72
2023/07/03 09:44:07;;;;;;;4.60;4.20;;;;;;;;;;5026684;28;20646;-71
2023/07/03 09:46:34;;;;;;;5.47;3.55;;;;;;;;;;5027487;28;20056;-72
2023/07/03 09:49:06;;;;;;;6.47;4.25;;;;;;;;;;5026482;28;20047;-72
2023/07/03 09:51:34;;;;;;;5.25;3.92;;;;;;;;;;5026106;28;20420;-71
2023/07/03 09:54:07;;;;;;;4.65;3.83;;;;;;;;;;5022952;28;20027;-71
2023/07/03 09:56:35;;;;;;;7.18;3.78;;;;;;;;;;5032438;28;20034;-72
2023/07/03 09:59:03;;;;;;;7.15;3.88;;;;;;;;;;5038354;28;20045;-72
2023/07/03 10:01:31;;;;;;;6.97;3.95;;;;;;;;;;5031113;28;20035;-72
2023/07/03 10:04:11;;;;;;;5.47;4.10;;;;;;;;;;5024318;28;20032;-72
2023/07/03 10:06:39;;;;;;;5.20;3.53;;;;;;;;;;5019732;28;20036;-72
2023/07/03 10:09:07;;;;;;;7.75;3.63;;;;;;;;;;5020544;28;20030;-72
2023/07/03 10:11:41;;;;;;;4.95;3.85;;;;;;;;;;5026224;28;20034;-72
2023/07/03 10:14:09;;;;;;;5.15;3.40;;;;;;;;;;5018764;28;20036;-71
2023/07/03 10:16:36;;;;;;;4.72;3.88;;;;;;;;;;5020936;28;20509;-71
2023/07/03 10:19:03;;;;;;;3.90;3.40;;;;;;;;;;5016243;28;20037;-72
2023/07/03 10:21:30;;;;;;;4.53;3.85;;;;;;;;;;5016295;28;20041;-72
2023/07/03 10:23:58;;;;;;;5.75;3.70;;;;;;;;;;5025130;28;20551;-72
2023/07/03 10:26:29;;;;;;;5.35;3.63;;;;;;;;;;5012546;28;20072;-71
2023/07/03 10:28:59;;;;;;;7.28;4.15;;;;;;;;;;5011986;28;20397;-72
2023/07/03 10:31:31;;;;;;;4.57;3.88;;;;;;;;;;5011224;28;20029;-72
2023/07/03 10:34:01;;;;;;;5.43;3.53;;;;;;;;;;5012007;28;20022;-71
2023/07/03 10:36:28;;;;;;;6.20;4.10;;;;;;;;;;5010998;28;20029;-72
2023/07/03 10:39:15;;;;;;;4.18;3.78;;;;;;;;;;5011659;28;20050;-71
2023/07/03 10:41:44;;;;;;;4.43;3.60;;;;;;;;;;5012040;28;20022;-71
2023/07/03 10:44:10;;;;;;;;;;;;;;;;;;5012262;28;20017;-72
2023/07/03 10:46:43;;;;;;;7.63;3.88;;;;;;;;;;5011585;28;19905;-72
2023/07/03 10:49:13;;;;;;;5.22;3.90;;;;;;;;;;5011325;28;20413;-72
2023/07/03 10:52:06;;;;;;;4.53;3.75;;;;;;;;;;5011927;28;20030;-72
2023/07/03 10:54:45;;;;;;;5.90;3.78;;;;;;;;;;4971037;28;20110;-72
2023/07/03 10:57:17;;;;;;;5.53;3.88;;;;;;;;;;4970706;28;20097;-71
2023/07/03 10:59:47;;;;;;;4.30;3.58;;;;;;;;;;4970573;28;20082;-72
2023/07/03 11:02:21;;;;;;;6.35;3.85;;;;;;;;;;4970755;28;20402;-72
2023/07/03 11:05:08;;;;;;;10.88;4.20;;;;;;;;;;4970632;28;20042;-72
2023/07/03 11:07:44;;;;;;;8.13;3.90;;;;;;;;;;4977718;28;20023;-71
2023/07/03 11:10:16;;;;;;;7.57;3.83;;;;;;;;;;4989740;28;20507;-72
2023/07/03 11:13:05;;;;;;;4.20;3.72;;;;;;;;;;4971918;28;20034;-72
2023/07/03 11:15:46;;;;;;;5.32;3.90;;;;;;;;;;4970386;28;20041;-71
2023/07/03 11:18:16;;;;;;;9.30;4.07;;;;;;;;;;4978956;28;20051;-71
2023/07/03 11:20:42;;;;;;;;;;;;;;;;;;4990000;28;20061;-72
2023/07/03 11:23:17;;;;;;;7.20;4.35;;;;;;;;;;4989777;28;19920;-72
2023/07/03 11:25:48;;;;;;;8.13;4.10;;;;;;;;;;4989639;28;20057;-72
2023/07/03 11:28:35;;;;;;;6.10;4.10;;;;;;;;;;4989420;28;20130;-72
2023/07/03 11:31:02;;;;;;;4.38;3.80;;;;;;;;;;4997245;28;20040;-72
2023/07/03 11:33:30;;;;;;;5.20;3.58;;;;;;;;;;5011241;28;20025;-71
2023/07/03 11:35:57;;;;;;;8.00;3.80;;;;;;;;;;5010358;28;20044;-71
2023/07/03 11:38:25;;;;;;;5.43;3.78;;;;;;;;;;5011602;28;20091;-71
2023/07/03 11:40:54;;;;;;;6.90;3.78;;;;;;;;;;5022792;28;20022;-72
2023/07/03 11:43:22;;;;;;;7.30;4.15;;;;;;;;;;5031032;28;20067;-71
2023/07/03 11:45:57;;;;;;;6.20;3.80;;;;;;;;;;5030213;28;20040;-70
2023/07/03 11:48:38;;;;;;;6.03;3.95;;;;;;;;;;5030828;28;20036;-71
2023/07/03 11:51:10;;;;;;;5.60;4.40;;;;;;;;;;5029767;28;20036;-72
2023/07/03 11:53:57;;;;;;;5.85;4.13;;;;;;;;;;5020995;28;20393;-72
2023/07/03 11:56:33;;;;;;;6.50;4.10;;;;;;;;;;5022843;28;20036;-71
2023/07/03 11:59:07;;;;;;;4.88;4.00;;;;;;;;;;5028638;28;20062;-71
2023/07/03 12:01:34;;;;;;;5.45;4.20;;;;;;;;;;5020064;28;20029;-72
2023/07/03 12:04:02;;;;;;;4.28;3.58;;;;;;;;;;5019023;28;20040;-72
2023/07/03 12:06:40;;;;;;;5.97;3.92;;;;;;;;;;5015842;28;20589;-72
2023/07/03 12:09:19;;;;;;;8.38;4.05;;;;;;;;;;5019318;28;20029;-71
2023/07/03 12:11:59;;;;;;;6.78;4.05;;;;;;;;;;5012679;28;20554;-72
2023/07/03 12:14:44;;;;;;;4.40;4.00;;;;;;;;;;5021039;28;20025;-72
2023/07/03 12:17:16;;;;;;;5.80;4.18;;;;;;;;;;5023002;28;20033;-72
2023/07/03 12:19:43;;;;;;;7.03;3.92;;;;;;;;;;5016337;28;20041;-71
2023/07/03 12:22:13;;;;;;;4.90;3.85;;;;;;;;;;5021028;28;20026;-69
2023/07/03 12:24:39;;;;;;;6.47;4.60;;;;;;;;;;5020652;28;20029;-68
2023/07/03 12:27:07;;;;;;;5.10;4.13;;;;;;;;;;5023887;28;20043;-68
2023/07/03 12:29:37;;;;;;;5.47;4.50;;;;;;;;;;5028761;28;20026;-69
2023/07/03 12:32:06;;;;;;;4.65;3.90;;;;;;;;;;5029994;28;20021;-70
2023/07/03 12:34:34;;;;;;;11.65;3.70;;;;;;;;;;5032842;28;20030;-70
2023/07/03 12:37:03;;;;;;;6.05;3.95;;;;;;;;;;5033066;28;20022;-69
2023/07/03 12:39:29;;;;;;;;;;;;;;;;;;5033467;28;20044;-70
2023/07/03 12:42:05;;;;;;;4.72;3.80;;;;;;;;;;5030656;28;20292;-69
2023/07/03 12:44:31;;;;;;;5.28;3.90;;;;;;;;;;5025162;28;20047;-70
2023/07/03 12:47:06;;;;;;;4.63;3.92;;;;;;;;;;5032025;28;20026;-70
2023/07/03 12:49:33;;;;;;;5.53;4.25;;;;;;;;;;5020820;28;20033;-70
2023/07/03 12:52:01;;;;;;;4.95;4.00;;;;;;;;;;5033489;28;20060;-70
2023/07/03 12:54:27;;;;;;;5.85;3.90;;;;;;;;;;5033068;28;20083;-70
2023/07/03 12:56:54;;;;;;;6.45;4.13;;;;;;;;;;5033437;28;20045;-70
2023/07/03 12:59:21;;;;;;;4.72;3.47;;;;;;;;;;5033463;28;20639;-69
2023/07/03 13:01:51;;;;;;;5.28;3.58;;;;;;;;;;5032364;28;20033;-70
2023/07/03 13:04:31;;;;;;;5.15;3.92;;;;;;;;;;5029695;28;20032;-69
2023/07/03 13:06:57;;;;;;;6.03;3.40;;;;;;;;;;5023897;28;20036;-70
2023/07/03 13:09:25;;;;;;;4.95;3.65;;;;;;;;;;5033692;28;20095;-70
2023/07/03 13:11:52;;;;;;;4.97;3.72;;;;;;;;;;5033312;28;20025;-69
2023/07/03 13:14:20;;;;;;;5.78;3.70;;;;;;;;;;5032305;28;20026;-70
2023/07/03 13:16:48;;;;;;;4.07;3.63;;;;;;;;;;5032505;28;20067;-70
2023/07/03 13:19:34;;;;;;;3.65;3.33;;;;;;;;;;5029132;28;20049;-70
2023/07/03 13:22:18;;;;;;;4.28;3.30;;;;;;;;;;5023024;28;20047;-69
2023/07/03 13:24:46;;;;;;;5.30;4.10;;;;;;;;;;5029893;28;20025;-69
2023/07/03 13:27:22;;;;;;;7.28;3.85;;;;;;;;;;5022656;28;20441;-70
2023/07/03 13:29:48;;;;;;;5.93;3.72;;;;;;;;;;5023646;28;20504;-70
2023/07/03 13:32:16;;;;;;;4.10;3.70;;;;;;;;;;5021756;28;20474;-70
2023/07/03 13:35:02;;;;;;;4.00;3.50;;;;;;;;;;5023443;28;20042;-70
2023/07/03 13:37:30;;;;;;;5.15;3.75;;;;;;;;;;5012730;28;20397;-70
2023/07/03 13:39:56;;;;;;;7.32;4.15;;;;;;;;;;5030196;28;20036;-68
2023/07/03 13:42:23;;;;;;;6.65;4.70;;;;;;;;;;5032154;28;20037;-70
2023/07/03 13:44:49;;;;;;;6.97;4.43;;;;;;;;;;5023345;28;20038;-70
2023/07/03 13:47:15;;;;;;;6.72;4.70;;;;;;;;;;5025484;28;20029;-72
2023/07/03 13:49:42;;;;;;;7.40;4.82;;;;;;;;;;5031553;28;20026;-72
2023/07/03 13:52:08;;;;;;;6.43;4.25;;;;;;;;;;5028631;28;20018;-72
2023/07/03 13:54:35;;;;;;;5.47;4.53;;;;;;;;;;5029046;28;20021;-72
2023/07/03 13:57:01;;;;;;;5.05;4.55;;;;;;;;;;5028949;28;20501;-72
2023/07/03 13:59:27;;;;;;;6.50;4.45;;;;;;;;;;5030424;28;20387;-72
2023/07/03 14:01:54;;;;;;;8.18;4.53;;;;;;;;;;5028818;28;20452;-72
2023/07/03 14:04:20;;;;;;;5.63;4.20;;;;;;;;;;5025999;28;20045;-70
2023/07/03 14:06:48;;;;;;;5.13;3.80;;;;;;;;;;5026482;28;20060;-72
2023/07/03 14:09:14;;;;;;;6.47;3.70;;;;;;;;;;5027037;28;20497;-72
2023/07/03 14:11:42;;;;;;;7.00;3.85;;;;;;;;;;5021957;28;20027;-72
2023/07/03 14:14:09;;;;;;;8.98;4.22;;;;;;;;;;5018322;28;20048;-72
2023/07/03 14:16:36;;;;;;;4.88;3.85;;;;;;;;;;5031094;28;20029;-72
2023/07/03 14:19:02;;;;;;;6.63;4.47;;;;;;;;;;5030288;28;20045;-72
2023/07/03 14:21:28;;;;;;;5.38;3.53;;;;;;;;;;5042373;28;20031;-72
2023/07/03 14:23:55;;;;;;;6.45;3.88;;;;;;;;;;5032041;28;20436;-72
2023/07/03 14:26:23;;;;;;;5.65;4.20;;;;;;;;;;5021120;28;20378;-73
2023/07/03 14:28:49;;;;;;;5.53;3.80;;;;;;;;;;5014394;28;20035;-72
2023/07/03 14:31:16;;;;;;;6.05;3.92;;;;;;;;;;5024887;28;20480;-72
2023/07/03 14:33:43;;;;;;;5.05;3.70;;;;;;;;;;5026461;28;20018;-72
2023/07/03 14:36:10;;;;;;;5.40;3.90;;;;;;;;;;5026011;28;20041;-72
2023/07/03 14:38:38;;;;;;;7.57;3.67;;;;;;;;;;5031517;28;20054;-72
2023/07/03 14:41:04;;;;;;;8.45;4.10;;;;;;;;;;5031625;28;20037;-72
2023/07/03 14:43:31;;;;;;;5.85;3.53;;;;;;;;;;5031484;28;20028;-72
2023/07/03 14:45:57;;;;;;;7.10;4.07;;;;;;;;;;5030921;28;20033;-72
2023/07/03 14:48:23;;;;;;;6.88;3.70;;;;;;;;;;5031492;28;20034;-72
2023/07/03 14:50:50;;;;;;;4.07;3.40;;;;;;;;;;5031061;28;20055;-72
2023/07/03 14:53:16;;;;;;;4.28;3.10;;;;;;;;;;5030394;28;20029;-72
2023/07/03 14:55:42;;;;;;;5.80;3.60;;;;;;;;;;5020118;28;20030;-72
2023/07/03 14:58:09;;;;;;;9.02;3.58;;;;;;;;;;5028800;28;20044;-72
2023/07/03 15:00:39;;;;;;;4.90;3.00;;;;;;;;;;5024742;28;20027;-72
2023/07/03 15:03:05;;;;;;;6.32;3.72;;;;;;;;;;5026376;28;20088;-72
2023/07/03 15:05:32;;;;;;;5.28;3.42;;;;;;;;;;5027781;28;20427;-72
2023/07/03 15:07:59;;;;;;;4.78;2.90;;;;;;;;;;5029690;28;20024;-71
2023/07/03 15:10:26;;;;;;;6.63;3.45;;;;;;;;;;5029798;28;20481;-70
2023/07/03 15:12:52;;;;;;;7.25;3.30;;;;;;;;;;5030761;28;20478;-72
2023/07/03 15:15:18;;;;;;;5.75;3.42;;;;;;;;;;5030853;28;20025;-72
2023/07/03 15:17:49;;;;;;;6.57;3.50;;;;;;;;;;5031129;28;20029;-72
2023/07/03 15:20:15;;;;;;;7.53;3.25;;;;;;;;;;5031644;28;20060;-72
2023/07/03 15:22:42;;;;;;;6.35;3.33;;;;;;;;;;5031245;28;20026;-70
2023/07/03 15:25:08;;;;;;;6.25;3.20;;;;;;;;;;5031891;28;20039;-70
2023/07/03 15:27:35;;;;;;;4.90;3.15;;;;;;;;;;5024019;28;20026;-72
2023/07/03 15:30:01;;;;;;;9.07;3.80;;;;;;;;;;5028441;28;20048;-71
2023/07/03 15:32:30;;;;;;;5.15;3.10;;;;;;;;;;5030567;28;20656;-73
2023/07/03 15:34:57;;;;;;;10.43;3.70;;;;;;;;;;5031311;28;20025;-72
2023/07/03 15:37:23;;;;;;;8.18;3.30;;;;;;;;;;5032064;28;20017;-72
2023/07/03 15:39:49;;;;;;;3.78;2.72;;;;;;;;;;5030880;28;20079;-72
2023/07/03 15:42:16;;;;;;;7.53;3.20;;;;;;;;;;5032128;28;20025;-72
2023/07/03 15:44:42;;;;;;;4.60;2.80;;;;;;;;;;5032177;28;20036;-72
2023/07/03 15:47:09;;;;;;;6.40;3.03;;;;;;;;;;5031827;28;20029;-72
2023/07/03 15:49:35;;;;;;;6.72;2.75;;;;;;;;;;5032030;28;20018;-72
2023/07/03 15:52:03;;;;;;;5.13;2.95;;;;;;;;;;5031734;28;20047;-72
2023/07/03 15:54:29;;;;;;;4.88;3.08;;;;;;;;;;5031573;28;20459;-72
2023/07/03 15:56:56;;;;;;;4.53;2.88;;;;;;;;;;5031795;28;20028;-72
2023/07/03 15:59:22;;;;;;;3.20;2.22;;;;;;;;;;5032141;28;20040;-72
2023/07/03 16:01:49;;;;;;;4.75;2.60;;;;;;;;;;5045052;28;20032;-72
2023/07/03 16:04:15;;;;;;;3.85;2.60;;;;;;;;;;5052018;28;20498;-72
2023/07/03 16:06:42;;;;;;;5.10;2.63;;;;;;;;;;5055704;28;20029;-72
2023/07/03 16:09:08;;;;;;;3.85;2.20;;;;;;;;;;5055514;28;20029;-72
2023/07/03 16:11:36;;;;;;;4.10;2.03;;;;;;;;;;5055834;28;20025;-72
2023/07/03 16:14:03;;;;;;;3.40;2.40;;;;;;;;;;5042837;28;20019;-72
2023/07/03 16:16:29;;;;;;;3.45;2.38;;;;;;;;;;5035388;28;20036;-72
2023/07/03 16:19:00;;;;;;;3.88;2.45;;;;;;;;;;5035027;28;20067;-72
2023/07/03 16:21:27;;;;;;;3.55;1.75;;;;;;;;;;5035549;28;20497;-72
2023/07/03 16:23:56;;;;;;;2.13;1.58;;;;;;;;;;5035184;28;20039;-72
2023/07/03 16:26:23;;;;;;;3.28;1.90;;;;;;;;;;5035257;28;20025;-72
2023/07/03 16:28:49;;;;;;;6.57;1.90;;;;;;;;;;5035266;28;20481;-71
2023/07/03 16:31:17;;;;;;;2.83;1.90;;;;;;;;;;5034914;28;20025;-72
2023/07/03 16:33:47;;;;;;;2.58;1.80;;;;;;;;;;5035503;28;20025;-72
2023/07/03 16:36:15;;;;;;;3.03;1.60;;;;;;;;;;5035358;28;20025;-72
2023/07/03 16:38:48;;;;;;;3.13;1.50;;;;;;;;;;5035209;28;20040;-72
2023/07/03 16:41:15;;;;;;;1.75;1.40;;;;;;;;;;5035001;28;20071;-72
2023/07/03 16:43:43;;;;;;;4.82;1.40;;;;;;;;;;5033764;28;20029;-72
2023/07/03 16:46:11;;;;;;;2.17;1.52;;;;;;;;;;5034713;28;20032;-72
2023/07/03 16:48:37;;;;;;;4.47;1.60;;;;;;;;;;5035119;28;20025;-72
2023/07/03 16:51:04;;;;;;;3.00;1.30;;;;;;;;;;5035042;28;20022;-72
2023/07/03 16:53:32;;;;;;;3.92;1.40;;;;;;;;;;5034711;28;20023;-72
2023/07/03 16:56:02;;;;;;;3.10;1.63;;;;;;;;;;5034774;28;20033;-72
2023/07/03 16:58:29;;;;;;;3.50;1.30;;;;;;;;;;5034486;28;20036;-72
2023/07/03 17:00:55;;;;;;;1.70;1.30;;;;;;;;;;5034202;28;20433;-72
2023/07/03 17:03:22;;;;;;;1.58;1.27;;;;;;;;;;5034787;28;20032;-72
2023/07/03 17:05:48;;;;;;;1.50;1.20;;;;;;;;;;5034713;28;20036;-71
2023/07/03 17:08:15;;;;;;;2.22;1.42;;;;;;;;;;5034552;28;20036;-72
2023/07/03 17:10:41;;;;;;;2.92;1.23;;;;;;;;;;5034578;28;20051;-72
2023/07/03 17:13:07;;;;;;;4.03;1.20;;;;;;;;;;5033316;28;20040;-72
2023/07/03 17:15:33;;;;;;;2.28;1.42;;;;;;;;;;5033634;28;20018;-72
2023/07/03 17:18:01;;;;;;;1.35;1.05;;;;;;;;;;5034284;28;20500;-72
2023/07/03 17:20:27;;;;;;;1.60;0.90;;;;;;;;;;5034276;28;20049;-72
2023/07/03 17:22:54;;;;;;;2.22;1.08;;;;;;;;;;5034220;28;20367;-72
2023/07/03 17:25:20;;;;;;;2.65;1.20;;;;;;;;;;5034102;28;20033;-72
2023/07/03 17:27:46;;;;;;;1.73;0.98;;;;;;;;;;5034342;28;20371;-72
2023/07/03 17:30:13;;;;;;;3.75;1.13;;;;;;;;;;5033742;28;20026;-72
2023/07/03 17:32:41;;;;;;;1.70;1.17;;;;;;;;;;5034211;28;20026;-72
2023/07/03 17:35:09;;;;;;;2.25;1.20;;;;;;;;;;5034024;28;20029;-72
2023/07/03 17:37:35;;;;;;;1.48;1.05;;;;;;;;;;5034197;28;20021;-71
2023/07/03 17:40:01;;;;;;;2.90;0.93;;;;;;;;;;5033889;28;20040;-72
2023/07/03 17:42:28;;;;;;;1.95;1.00;;;;;;;;;;5033948;28;20029;-75
2023/07/03 17:44:54;;;;;;;1.27;1.02;;;;;;;;;;5033852;28;20029;-72
2023/07/03 17:47:20;;;;;;;3.20;1.23;;;;;;;;;;5033947;28;20032;-72
2023/07/03 17:49:46;;;;;;;2.22;1.20;;;;;;;;;;5033712;28;20032;-72
2023/07/03 17:52:13;;;;;;;2.35;0.95;;;;;;;;;;5034042;28;20021;-72
2023/07/03 17:54:39;;;;;;;2.28;1.33;;;;;;;;;;5033676;28;20466;-72
2023/07/03 17:57:05;;;;;;;1.88;1.00;;;;;;;;;;5032380;28;20025;-72
2023/07/03 17:59:32;;;;;;;1.10;1.00;;;;;;;;;;5033448;28;20045;-72
2023/07/03 18:01:58;;;;;;;2.10;1.10;;;;;;;;;;5033448;28;20039;-72
2023/07/03 18:04:24;;;;;;;1.77;1.00;;;;;;;;;;5033830;28;20038;-72
2023/07/03 18:06:51;;;;;;;2.55;1.30;;;;;;;;;;5033585;28;20028;-72
2023/07/03 18:09:18;;;;;;;5.00;1.00;;;;;;;;;;5033335;28;20026;-72
2023/07/03 18:11:44;;;;;;;1.23;1.05;;;;;;;;;;5033238;28;20395;-72
2023/07/03 18:14:10;;;;;;;2.95;1.13;;;;;;;;;;5033237;28;20018;-71
2023/07/03 18:16:36;;;;;;;1.83;1.30;;;;;;;;;;5033317;28;20028;-72
2023/07/03 18:19:03;;;;;;;1.27;1.17;;;;;;;;;;5031896;28;20528;-72
2023/07/03 18:21:29;;;;;;;1.20;1.10;;;;;;;;;;5033430;28;20032;-72
2023/07/03 18:23:57;;;;;;;1.40;0.93;;;;;;;;;;5033321;28;20506;-71
2023/07/03 18:26:23;;;;;;;1.73;1.20;;;;;;;;;;5032449;28;20026;-71
2023/07/03 18:28:50;;;;;;;2.28;1.27;;;;;;;;;;5032459;28;20033;-71
2023/07/03 18:31:16;;;;;;;1.85;1.30;;;;;;;;;;5033287;28;20020;-72
2023/07/03 18:33:43;;;;;;;2.05;1.38;;;;;;;;;;5033099;28;20052;-72
2023/07/03 18:36:09;;;;;;;2.72;1.30;;;;;;;;;;5033540;28;20032;-71
2023/07/03 18:38:36;;;;;;;2.10;1.35;;;;;;;;;;5032935;28;20448;-72
2023/07/03 18:41:06;;;;;;;2.83;1.23;;;;;;;;;;5032588;28;20029;-71
2023/07/03 18:43:32;;;;;;;2.10;1.33;;;;;;;;;;5031879;28;20025;-71
2023/07/03 18:45:59;;;;;;;1.88;1.30;;;;;;;;;;5032803;28;20021;-71
2023/07/03 18:48:25;;;;;;;2.22;1.30;;;;;;;;;;5032957;28;20029;-72
2023/07/03 18:50:52;;;;;;;2.75;1.20;;;;;;;;;;5032599;28;20017;-72
2023/07/03 18:53:20;;;;;;;2.47;1.60;;;;;;;;;;5032749;28;20029;-71
2023/07/03 18:55:49;;;;;;;1.58;1.33;;;;;;;;;;5032292;28;20036;-71
2023/07/03 18:58:16;;;;;;;2.10;1.70;;;;;;;;;;5032529;28;20026;-71
2023/07/03 19:00:43;;;;;;;1.80;1.40;;;;;;;;;;5031564;28;20026;-72
2023/07/03 19:03:09;;;;;;;2.38;1.10;;;;;;;;;;5032483;28;20017;-72
2023/07/03 19:05:35;;;;;;;1.63;1.13;;;;;;;;;;5032743;28;20044;-71
2023/07/03 19:08:01;;;;;;;1.35;1.25;;;;;;;;;;5032494;28;20039;-71
2023/07/03 19:10:28;;;;;;;1.92;1.27;;;;;;;;;;5030795;28;20056;-71
2023/07/03 19:12:55;;;;;;;2.92;2.00;;;;;;;;;;5032475;28;20028;-71
2023/07/03 19:15:21;;;;;;;3.15;2.60;;;;;;;;;;5032231;28;20213;-71
2023/07/03 19:17:47;;;;;;;4.55;3.30;;;;;;;;;;5032485;28;20044;-71
2023/07/03 19:20:17;;;;;;;3.65;2.55;;;;;;;;;;5032116;28;20045;-71
2023/07/03 19:22:43;;;;;;;2.95;2.00;;;;;;;;;;5032335;28;20021;-71
2023/07/03 19:25:09;;;;;;;3.58;2.10;;;;;;;;;;5031818;28;20092;-71
2023/07/03 19:27:36;;;;;;;6.15;4.63;;;;;;;;;;5032125;28;20025;-71
2023/07/03 19:30:02;;;;;;;7.85;6.05;;;;;;;;;;5032083;28;20026;-72
2023/07/03 19:32:28;;;;;;;9.02;7.57;;;;;;;;;;5032245;28;20092;-71
2023/07/03 19:34:55;;;;;;;7.72;6.60;;;;;;;;;;5032042;28;20067;-71
2023/07/03 19:37:21;;;;;;;9.15;6.00;;;;;;;;;;5032263;28;20040;-71
2023/07/03 19:39:48;;;;;;;6.30;4.50;;;;;;;;;;5037062;28;20041;-71
2023/07/03 19:42:14;;;;;;;5.13;3.40;;;;;;;;;;5037252;28;20029;-71
2023/07/03 19:44:41;;;;;;;3.72;2.35;;;;;;;;;;5038622;28;20485;-71
2023/07/03 19:47:07;;;;;;;3.67;2.15;;;;;;;;;;5039256;28;20025;-71
2023/07/03 19:49:33;;;;;;;5.95;2.30;;;;;;;;;;5038814;28;20021;-71
2023/07/03 19:52:00;;;;;;;5.50;2.03;;;;;;;;;;5038566;28;20022;-71
2023/07/03 19:54:26;;;;;;;2.70;1.75;;;;;;;;;;5038169;28;20424;-71
2023/07/03 19:56:52;;;;;;;2.42;1.55;;;;;;;;;;5038509;28;20028;-71
2023/07/03 19:59:19;;;;;;;2.72;1.95;;;;;;;;;;5038356;28;20540;-71
2023/07/03 20:01:45;;;;;;;4.60;2.00;;;;;;;;;;5038379;28;20026;-71
2023/07/03 20:04:11;;;;;;;3.15;1.90;;;;;;;;;;5038786;28;20034;-71
2023/07/03 20:06:37;;;;;;;5.47;1.98;;;;;;;;;;5038468;28;20481;-71
2023/07/03 20:09:04;;;;;;;2.80;1.83;;;;;;;;;;5038291;28;20032;-70
2023/07/03 20:11:30;;;;;;;7.80;2.20;;;;;;;;;;5038632;28;20032;-71
2023/07/03 20:13:57;;;;;;;3.20;2.08;;;;;;;;;;5038217;28;20040;-71
2023/07/03 20:16:23;;;;;;;2.60;1.60;;;;;;;;;;5038254;28;20028;-71
2023/07/03 20:18:50;;;;;;;4.90;2.00;;;;;;;;;;5038372;28;20534;-71
2023/07/03 20:21:16;;;;;;;2.33;1.90;;;;;;;;;;5038470;28;20055;-71
2023/07/03 20:23:43;;;;;;;4.85;2.08;;;;;;;;;;5037045;28;20040;-71
2023/07/03 20:26:09;;;;;;;3.08;2.05;;;;;;;;;;5038890;28;20021;-71
2023/07/03 20:28:37;;;;;;;3.67;1.75;;;;;;;;;;5038293;28;20051;-71
2023/07/03 20:31:05;;;;;;;2.08;1.60;;;;;;;;;;5037461;28;20029;-72
2023/07/03 20:33:32;;;;;;;5.70;2.20;;;;;;;;;;5038691;28;20021;-71
2023/07/03 20:36:10;;;;;;;3.70;2.13;;;;;;;;;;5038493;28;20024;-70
2023/07/03 20:38:36;;;;;;;2.33;1.95;;;;;;;;;;5037925;28;20087;-72
2023/07/03 20:41:07;;;;;;;3.40;2.00;;;;;;;;;;5038379;28;20036;-71
2023/07/03 20:43:33;;;;;;;3.05;1.85;;;;;;;;;;5038633;28;20018;-71
2023/07/03 20:46:01;;;;;;;3.08;1.95;;;;;;;;;;5038675;28;20021;-71
2023/07/03 20:48:28;;;;;;;3.22;2.15;;;;;;;;;;5038353;28;20025;-71
2023/07/03 20:50:58;;;;;;;2.97;2.45;;;;;;;;;;5035925;28;20025;-71
2023/07/03 20:53:47;;;;;;;3.43;2.17;;;;;;;;;;5035344;28;20022;-71
2023/07/03 20:56:14;;;;;;;2.58;2.10;;;;;;;;;;5035130;28;20029;-72
2023/07/03 20:58:41;;;;;;;4.28;2.28;;;;;;;;;;5035217;28;20029;-71
2023/07/03 21:01:10;;;;;;;8.75;2.30;;;;;;;;;;5035933;28;20033;-71
2023/07/03 21:03:37;;;;;;;5.03;2.17;;;;;;;;;;5033791;28;20501;-71
2023/07/03 21:06:04;;;;;;;2.53;2.22;;;;;;;;;;5034507;28;20493;-71
2023/07/03 21:08:30;;;;;;;3.63;1.90;;;;;;;;;;5035003;28;20440;-71